Columbia, Ohio
Current Conditions -  °F | °C
As of 4:53 PM on Thursday 18 Dec 2014 (Local Time) from KPHD Reporting Station
Overcast Overcast  
Wind Chill: 24°   Ceiling: 2000
Heat Index: 29°   Visibility: 10mi
Dew Point: 21°   Wind: 5mph
Humidity: 72%   Direction: 250°WSW
Pressure: 30.2"   Gusts: NA
Location:  40.5515°N, 81.4667°W
Report Text: KPHD 182153Z AUTO 25004KT 10SM OVC020 M02/M06 A3020 RMK AO2 SLP236 T10171061
Loading
Personal Weather Stations






























Interactive Weather Map New forecast layout! Learn more

10-Day Weather Forecast

Advertisements
Track Severe Weather on mobile